| time (UTC) | temp F | wind direction | speed knots | gust knots | rain 1hr in | rain 24hr in | rain mn in | humidity % | barometer mb |
| 20260510180515 | 80 | 175 | 0.9 | 5.2 | 0.00 | 0.06 | 0.00 | 49 | 1013.8 |
| 20260510175516 | 80 | 106 | 0.9 | 3.5 | 0.00 | 0.06 | 0.00 | 49 | 1014.0 |
| 20260510174516 | 79 | 148 | 0.9 | 3.5 | 0.00 | 0.06 | 0.00 | 50 | 1014.0 |
| 20260510173516 | 78 | 21 | 0.9 | 3.5 | 0.00 | 0.06 | 0.00 | 51 | 1013.9 |
| 20260510172516 | 77 | 256 | 0.0 | 2.6 | 0.00 | 0.06 | 0.00 | 54 | 1014.0 |
| 20260510171516 | 76 | 170 | 0.9 | 2.6 | 0.00 | 0.06 | 0.00 | 60 | 1014.0 |
| 20260510170517 | 76 | 135 | 0.9 | 2.6 | 0.00 | 0.06 | 0.00 | 61 | 1014.1 |
| 20260510165537 | 75 | 20 | 0.9 | 2.6 | 0.00 | 0.06 | 0.00 | 65 | 1014.3 |
| 20260510164517 | 76 | 211 | 1.7 | 4.3 | 0.00 | 0.06 | 0.00 | 63 | 1014.4 |
| 20260510163516 | 76 | 334 | 0.0 | 2.6 | 0.00 | 0.06 | 0.00 | 61 | 1014.5 |
| 20260510162516 | 75 | 356 | 0.0 | 1.7 | 0.00 | 0.06 | 0.00 | 62 | 1014.5 |
| 20260510161516 | 74 | 178 | 0.9 | 2.6 | 0.00 | 0.06 | 0.00 | 63 | 1014.5 |
| 20260510160536 | 74 | 194 | 0.0 | 4.3 | 0.00 | 0.06 | 0.00 | 64 | 1014.4 |
| 20260510155537 | 73 | 31 | 0.0 | 1.7 | 0.00 | 0.06 | 0.00 | 65 | 1014.5 |
| 20260510154516 | 73 | 202 | 0.9 | 4.3 | 0.00 | 0.06 | 0.00 | 69 | 1014.6 |
| 20260510153537 | 72 | 217 | 0.0 | 1.7 | 0.00 | 0.06 | 0.00 | 68 | 1014.5 |
| 20260510152517 | 72 | 218 | 0.0 | 3.5 | 0.00 | 0.06 | 0.00 | 69 | 1014.6 |
| 20260510151515 | 72 | 220 | 0.9 | 3.5 | 0.00 | 0.06 | 0.00 | 69 | 1014.5 |
| 20260510150515 | 72 | 267 | 0.0 | 2.6 | 0.00 | 0.06 | 0.00 | 71 | 1014.3 |
| 20260510145516 | 73 | 206 | 0.9 | 2.6 | 0.00 | 0.06 | 0.00 | 71 | 1014.1 |
| 20260510144516 | 74 | 187 | 0.0 | 2.6 | 0.00 | 0.06 | 0.00 | 67 | 1013.9 |
| 20260510143516 | 72 | 344 | 0.0 | 2.6 | 0.00 | 0.06 | 0.00 | 65 | 1013.7 |
| 20260510142516 | 72 | 321 | 0.9 | 1.7 | 0.00 | 0.06 | 0.00 | 69 | 1013.8 |
| 20260510141517 | 72 | 285 | 0.0 | 1.7 | 0.00 | 0.06 | 0.00 | 72 | 1013.9 |
| 20260510140536 | 70 | 354 | 0.0 | 1.7 | 0.00 | 0.06 | 0.00 | 74 | 1013.9 |
| 20260510135537 | 70 | 252 | 0.0 | 2.6 | 0.00 | 0.06 | 0.00 | 75 | 1013.8 |
| 20260510134517 | 69 | 225 | 0.0 | 0.9 | 0.00 | 0.06 | 0.00 | 76 | 1013.6 |
| 20260510133517 | 69 | 195 | 0.0 | 1.7 | 0.00 | 0.06 | 0.00 | 75 | 1013.6 |
| 20260510132517 | 67 | 244 | 0.0 | 0.9 | 0.00 | 0.06 | 0.00 | 77 | 1013.7 |
| 20260510131518 | 65 | 329 | 0.0 | 1.7 | 0.00 | 0.06 | 0.00 | 81 | 1013.8 |
| 20260510130518 | 64 | 315 | 1.7 | 2.6 | 0.00 | 0.06 | 0.00 | 83 | 1013.8 |
| 20260510125518 | 63 | 303 | 1.7 | 3.5 | 0.00 | 0.06 | 0.00 | 85 | 1013.9 |
| 20260510124520 | 62 | 283 | 0.9 | 1.7 | 0.00 | 0.06 | 0.00 | 88 | 1013.9 |
| 20260510123520 | 61 | 287 | 1.7 | 1.7 | 0.00 | 0.06 | 0.00 | 90 | 1013.8 |
| 20260510122540 | 60 | 297 | 1.7 | 3.5 | 0.00 | 0.06 | 0.00 | 92 | 1013.8 |
| 20260510121520 | 59 | 307 | 2.6 | 3.5 | 0.00 | 0.06 | 0.00 | 94 | 1013.7 |
| 20260510120520 | 58 | 304 | 1.7 | 2.6 | 0.00 | 0.06 | 0.00 | 96 | 1013.7 |
| 20260510115541 | 57 | 300 | 1.7 | 3.5 | 0.00 | 0.06 | 0.00 | 98 | 1013.6 |
| 20260510114520 | 57 | 303 | 1.7 | 2.6 | 0.00 | 0.06 | 0.00 | 99 | 1013.6 |
| 20260510113521 | 56 | 281 | 1.7 | 2.6 | 0.00 | 0.06 | 0.00 | 100 | 1013.4 |
| 20260510112521 | 55 | 268 | 0.9 | 1.7 | 0.00 | 0.06 | 0.00 | 100 | 1013.2 |
| 20260510111521 | 54 | 288 | 1.7 | 2.6 | 0.00 | 0.06 | 0.00 | 100 | 1013.0 |
| 20260510110521 | 53 | 300 | 0.9 | 1.7 | 0.00 | 0.06 | 0.00 | 100 | 1012.7 |
| 20260510105521 | 53 | 291 | 0.9 | 0.9 | 0.00 | 0.06 | 0.00 | 100 | 1012.5 |
| 20260510104521 | 53 | 301 | 0.9 | 1.7 | 0.00 | 0.06 | 0.00 | 100 | 1012.4 |
| 20260510103522 | 53 | 317 | 0.0 | 0.9 | 0.00 | 0.06 | 0.00 | 99 | 1012.4 |
| 20260510102522 | 53 | 0.0 | 0.0 | 0.00 | 0.06 | 0.00 | 100 | 1012.1 | |
| 20260510101542 | 53 | 0.0 | 0.0 | 0.00 | 0.06 | 0.00 | 99 | 1012.2 | |
| 20260510100543 | 54 | 0.0 | 0.0 | 0.00 | 0.06 | 0.00 | 99 | 1012.3 | |
| 20260510095523 | 54 | 279 | 0.9 | 1.7 | 0.00 | 0.06 | 0.00 | 99 | 1012.2 |
| 20260510094523 | 54 | 300 | 1.7 | 3.5 | 0.00 | 0.06 | 0.00 | 100 | 1012.2 |
| 20260510093523 | 53 | 303 | 0.9 | 1.7 | 0.00 | 0.06 | 0.00 | 100 | 1012.1 |
| 20260510092523 | 53 | 289 | 0.9 | 1.7 | 0.00 | 0.06 | 0.00 | 99 | 1012.0 |
| 20260510091523 | 53 | 0.0 | 0.0 | 0.00 | 0.06 | 0.00 | 99 | 1011.9 | |
| 20260510090523 | 53 | 268 | 0.0 | 0.9 | 0.00 | 0.06 | 0.00 | 99 | 1011.8 |
| 20260510085524 | 53 | 280 | 0.0 | 0.9 | 0.00 | 0.06 | 0.00 | 99 | 1011.6 |
| 20260510084524 | 54 | 296 | 0.9 | 1.7 | 0.00 | 0.06 | 0.00 | 99 | 1011.6 |
| 20260510083524 | 54 | 298 | 1.7 | 1.7 | 0.00 | 0.06 | 0.00 | 99 | 1011.4 |
| 20260510082524 | 54 | 305 | 1.7 | 2.6 | 0.00 | 0.06 | 0.00 | 99 | 1011.3 |
| 20260510081524 | 54 | 258 | 0.0 | 0.9 | 0.00 | 0.06 | 0.00 | 99 | 1011.2 |
| 20260510080524 | 54 | 299 | 0.9 | 1.7 | 0.00 | 0.06 | 0.00 | 99 | 1011.0 |
| 20260510075525 | 54 | 307 | 0.0 | 0.9 | 0.00 | 0.06 | 0.00 | 99 | 1010.9 |
| 20260510074525 | 54 | 300 | 0.9 | 1.7 | 0.00 | 0.06 | 0.00 | 99 | 1010.9 |
| 20260510073525 | 54 | 307 | 0.0 | 0.9 | 0.00 | 0.06 | 0.00 | 99 | 1010.8 |
| 20260510072525 | 54 | 304 | 0.0 | 0.9 | 0.00 | 0.06 | 0.00 | 99 | 1010.7 |
| 20260510071525 | 55 | 302 | 1.7 | 1.7 | 0.00 | 0.06 | 0.00 | 99 | 1010.7 |
| 20260510070545 | 55 | 307 | 0.0 | 0.9 | 0.00 | 0.06 | 0.00 | 99 | 1010.7 |
| 20260510065546 | 55 | 303 | 0.0 | 0.0 | 0.00 | 0.06 | 0.00 | 99 | 1010.7 |
| 20260510064546 | 55 | 309 | 0.0 | 0.9 | 0.00 | 0.06 | 0.00 | 99 | 1010.6 |
| 20260510063526 | 55 | 297 | 0.0 | 0.9 | 0.00 | 0.06 | 0.00 | 98 | 1010.6 |
| 20260510062526 | 55 | 304 | 0.9 | 0.9 | 0.00 | 0.06 | 0.00 | 98 | 1010.6 |
| 20260510061546 | 55 | 301 | 0.0 | 0.9 | 0.00 | 0.06 | 0.00 | 98 | 1010.5 |
| 20260510060527 | 55 | 300 | 0.9 | 1.7 | 0.00 | 0.06 | 0.00 | 98 | 1010.4 |
| 20260510055527 | 55 | 299 | 0.0 | 0.9 | 0.00 | 0.06 | 0.00 | 98 | 1010.5 |
| 20260510054547 | 56 | 289 | 0.0 | 0.0 | 0.00 | 0.06 | 0.00 | 98 | 1010.7 |
| 20260510053527 | 56 | 294 | 0.0 | 0.9 | 0.00 | 0.06 | 0.00 | 98 | 1010.7 |
| 20260510052607 | 56 | 300 | 0.9 | 0.9 | 0.00 | 0.06 | 0.00 | 98 | 1010.8 |
| 20260510051547 | 56 | 286 | 0.9 | 1.7 | 0.00 | 0.06 | 0.00 | 98 | 1010.8 |
| 20260510050527 | 56 | 298 | 0.9 | 1.7 | 0.00 | 0.06 | 0.00 | 97 | 1010.8 |
| 20260510045527 | 56 | 303 | 0.9 | 0.9 | 0.00 | 0.06 | 0.00 | 97 | 1010.9 |
| 20260510044528 | 56 | 257 | 0.0 | 0.0 | 0.00 | 0.06 | 0.00 | 97 | 1010.9 |
| 20260510043528 | 56 | 298 | 0.9 | 0.9 | 0.00 | 0.06 | 0.00 | 97 | 1010.9 |
| 20260510042548 | 56 | 296 | 0.0 | 0.9 | 0.00 | 0.06 | 0.00 | 96 | 1010.8 |
| 20260510041529 | 57 | 289 | 0.0 | 0.9 | 0.00 | 0.06 | 0.00 | 96 | 1010.8 |
| 20260510040518 | 57 | 297 | 0.0 | 0.9 | 0.00 | 0.06 | 0.00 | 96 | 1010.7 |
| 20260510035556 | 57 | 299 | 0.9 | 1.7 | 0.00 | 0.06 | 0.06 | 96 | 1010.7 |
| 20260510034516 | 57 | 297 | 0.9 | 1.7 | 0.00 | 0.06 | 0.06 | 96 | 1010.7 |
| 20260510033516 | 57 | 301 | 0.9 | 0.9 | 0.00 | 0.06 | 0.06 | 95 | 1010.6 |
| 20260510032516 | 58 | 263 | 0.0 | 0.9 | 0.00 | 0.06 | 0.06 | 95 | 1010.6 |
| 20260510031516 | 58 | 290 | 0.9 | 0.9 | 0.00 | 0.06 | 0.06 | 95 | 1010.5 |
| 20260510030516 | 58 | 290 | 0.0 | 1.7 | 0.00 | 0.06 | 0.06 | 95 | 1010.5 |
| 20260510025516 | 58 | 291 | 0.0 | 0.9 | 0.00 | 0.06 | 0.06 | 94 | 1010.5 |
| 20260510024517 | 58 | 298 | 0.0 | 0.9 | 0.00 | 0.06 | 0.06 | 94 | 1010.5 |
| 20260510023537 | 58 | 306 | 0.0 | 0.9 | 0.00 | 0.06 | 0.06 | 94 | 1010.5 |
| 20260510022517 | 58 | 304 | 0.9 | 1.7 | 0.00 | 0.06 | 0.06 | 94 | 1010.5 |
| 20260510021517 | 58 | 301 | 0.9 | 1.7 | 0.00 | 0.06 | 0.06 | 94 | 1010.5 |
| 20260510020518 | 58 | 301 | 0.9 | 1.7 | 0.00 | 0.06 | 0.06 | 93 | 1010.4 |
| 20260510015518 | 58 | 297 | 0.9 | 1.7 | 0.00 | 0.06 | 0.06 | 93 | 1010.3 |
| 20260510014518 | 59 | 300 | 0.9 | 1.7 | 0.00 | 0.06 | 0.06 | 93 | 1010.2 |
| 20260510013518 | 59 | 298 | 0.9 | 1.7 | 0.00 | 0.06 | 0.06 | 92 | 1010.1 |
| 20260510012518 | 59 | 282 | 0.0 | 0.9 | 0.00 | 0.06 | 0.06 | 91 | 1010.1 |
| 20260510011539 | 60 | 285 | 0.0 | 0.9 | 0.00 | 0.06 | 0.06 | 90 | 1010.0 |
| 20260510010516 | 60 | 305 | 0.9 | 1.7 | 0.00 | 0.06 | 0.06 | 90 | 1010.0 |
| 20260510005535 | 61 | 281 | 0.0 | 0.9 | 0.00 | 0.06 | 0.06 | 88 | 1009.9 |
| 20260510004535 | 61 | 292 | 0.9 | 1.7 | 0.00 | 0.06 | 0.06 | 86 | 1009.9 |
| 20260510003516 | 62 | 277 | 0.0 | 0.9 | 0.00 | 0.06 | 0.06 | 85 | 1009.7 |
| 20260510002516 | 62 | 285 | 0.0 | 0.9 | 0.00 | 0.06 | 0.06 | 84 | 1009.7 |
| 20260510001517 | 63 | 279 | 0.0 | 0.9 | 0.00 | 0.06 | 0.06 | 82 | 1009.7 |
| 20260510000516 | 64 | 287 | 0.0 | 0.9 | 0.00 | 0.06 | 0.06 | 80 | 1009.6 |
| 20260509235537 | 65 | 311 | 0.0 | 0.9 | 0.00 | 0.06 | 0.06 | 76 | 1009.5 |
| 20260509234517 | 66 | 256 | 0.9 | 1.7 | 0.00 | 0.06 | 0.06 | 74 | 1009.5 |
| 20260509233517 | 68 | 272 | 0.0 | 1.7 | 0.00 | 0.06 | 0.06 | 71 | 1009.4 |
| 20260509232517 | 70 | 249 | 0.0 | 0.9 | 0.00 | 0.06 | 0.06 | 69 | 1009.3 |
| 20260509231517 | 70 | 266 | 0.0 | 0.0 | 0.00 | 0.06 | 0.06 | 67 | 1009.3 |
| 20260509230517 | 70 | 290 | 0.0 | 0.9 | 0.00 | 0.06 | 0.06 | 65 | 1009.3 |
| 20260509225518 | 71 | 239 | 0.0 | 1.7 | 0.00 | 0.06 | 0.06 | 64 | 1009.2 |
| 20260509224517 | 73 | 212 | 0.0 | 0.9 | 0.00 | 0.06 | 0.06 | 60 | 1009.3 |
| 20260509223518 | 74 | 220 | 0.0 | 0.9 | 0.00 | 0.06 | 0.06 | 58 | 1009.4 |
| 20260509222518 | 74 | 0.0 | 0.0 | 0.00 | 0.06 | 0.06 | 59 | 1009.4 | |
| 20260509221538 | 73 | 305 | 0.0 | 0.9 | 0.00 | 0.06 | 0.06 | 60 | 1009.3 |
| 20260509220515 | 73 | 204 | 0.0 | 1.7 | 0.00 | 0.06 | 0.06 | 61 | 1009.2 |
| 20260509215515 | 74 | 209 | 0.0 | 1.7 | 0.00 | 0.06 | 0.06 | 60 | 1009.3 |
| 20260509214516 | 74 | 206 | 0.0 | 1.7 | 0.00 | 0.06 | 0.06 | 59 | 1009.3 |
| 20260509213516 | 73 | 267 | 0.0 | 0.9 | 0.00 | 0.06 | 0.06 | 62 | 1009.3 |
| 20260509212516 | 71 | 213 | 0.0 | 0.9 | 0.00 | 0.06 | 0.06 | 66 | 1009.2 |
| 20260509211556 | 70 | 205 | 0.9 | 2.6 | 0.00 | 0.06 | 0.06 | 67 | 1009.0 |
| 20260509210517 | 71 | 302 | 0.0 | 0.9 | 0.00 | 0.06 | 0.06 | 68 | 1009.1 |
| 20260509205537 | 71 | 207 | 0.9 | 1.7 | 0.00 | 0.06 | 0.06 | 66 | 1009.0 |
| 20260509204517 | 70 | 229 | 0.9 | 3.5 | 0.00 | 0.06 | 0.06 | 68 | 1009.1 |
| 20260509203522 | 71 | 208 | 0.0 | 2.6 | 0.00 | 0.06 | 0.06 | 68 | 1009.2 |
| 20260509202517 | 70 | 341 | 0.0 | 1.7 | 0.00 | 0.06 | 0.06 | 72 | 1009.3 |
| 20260509201517 | 70 | 231 | 0.0 | 1.7 | 0.00 | 0.06 | 0.06 | 71 | 1009.5 |
| 20260509200537 | 70 | 177 | 0.0 | 2.6 | 0.01 | 0.06 | 0.06 | 71 | 1009.5 |
| 20260509195517 | 70 | 189 | 0.9 | 3.5 | 0.01 | 0.06 | 0.06 | 71 | 1009.6 |
| 20260509194517 | 69 | 331 | 0.0 | 1.7 | 0.06 | 0.06 | 0.06 | 74 | 1009.7 |
| 20260509193518 | 68 | 255 | 0.0 | 1.7 | 0.06 | 0.06 | 0.06 | 78 | 1009.7 |
| 20260509192518 | 65 | 222 | 0.9 | 2.6 | 0.06 | 0.06 | 0.06 | 82 | 1009.6 |
| 20260509191516 | 64 | 236 | 0.9 | 3.5 | 0.06 | 0.06 | 0.06 | 85 | 1010.0 |
| 20260509190515 | 64 | 278 | 0.9 | 1.7 | 0.05 | 0.05 | 0.05 | 85 | 1010.6 |
| 20260509185516 | 65 | 294 | 0.9 | 1.7 | 0.05 | 0.05 | 0.05 | 82 | 1010.7 |
| 20260509184516 | 66 | 203 | 1.7 | 4.3 | 0.00 | 0.00 | 0.00 | 76 | 1010.5 |
| 20260509183516 | 67 | 289 | 0.9 | 1.7 | 0.00 | 0.00 | 0.00 | 73 | 1010.4 |
| 20260509182516 | 68 | 186 | 0.9 | 4.3 | 0.00 | 0.00 | 0.00 | 70 | 1010.6 |
| 20260509181516 | 67 | 331 | 0.9 | 4.3 | 0.00 | 0.00 | 0.00 | 65 | 1010.7 |